createdAt,value
2022-08-02T00:01:06.569Z,5.57
2022-08-02T00:03:34.872Z,7.93
2022-08-02T00:06:03.780Z,6.05
2022-08-02T00:08:32.865Z,4.90
2022-08-02T00:11:01.119Z,7.63
2022-08-02T00:13:30.616Z,6.15
2022-08-02T00:15:58.847Z,9.27
2022-08-02T00:18:28.919Z,6.38
2022-08-02T00:20:57.222Z,5.20
2022-08-02T00:23:25.902Z,5.90
2022-08-02T00:25:58.513Z,5.55
2022-08-02T00:28:28.145Z,4.90
2022-08-02T00:31:00.625Z,6.07
2022-08-02T00:34:28.045Z,7.05
2022-08-02T00:36:17.984Z,4.68
2022-08-02T00:38:46.703Z,5.32
2022-08-02T00:41:20.488Z,5.90
2022-08-02T00:43:50.073Z,6.20
2022-08-02T00:46:20.945Z,6.93
2022-08-02T00:48:49.870Z,5.78
2022-08-02T00:51:18.154Z,6.85
2022-08-02T00:53:46.732Z,6.15
2022-08-02T00:56:14.696Z,5.13
2022-08-02T00:58:42.639Z,7.18
2022-08-02T01:01:10.729Z,6.22
2022-08-02T01:03:38.832Z,7.88
2022-08-02T01:06:14.377Z,7.57
2022-08-02T01:08:43.280Z,5.75
2022-08-02T01:11:12.352Z,10.38
2022-08-02T01:13:40.585Z,8.13
2022-08-02T01:16:20.469Z,8.88
2022-08-02T01:18:54.436Z,6.60
2022-08-02T01:21:43.789Z,7.70
2022-08-02T01:24:33.425Z,8.15
2022-08-02T01:27:20.336Z,6.97
2022-08-02T01:29:55.581Z,9.70
2022-08-02T01:32:29.598Z,10.95
2022-08-02T01:35:09.105Z,8.48
2022-08-02T01:37:56.616Z,10.55
2022-08-02T01:40:30.561Z,9.30
2022-08-02T01:42:59.937Z,9.90
2022-08-02T01:45:32.958Z,8.18
2022-08-02T01:48:02.519Z,8.82
2022-08-02T01:50:33.632Z,10.45
2022-08-02T01:53:06.462Z,14.88
2022-08-02T01:55:57.894Z,8.48
2022-08-02T01:58:34.856Z,8.00
2022-08-02T02:01:04.673Z,6.05
2022-08-02T02:03:34.100Z,6.28
2022-08-02T02:06:05.446Z,6.10
2022-08-02T02:08:39.639Z,9.32
2022-08-02T02:12:06.216Z,9.57
2022-08-02T02:14:00.720Z,7.28
2022-08-02T02:16:31.989Z,7.32
2022-08-02T02:19:03.310Z,9.93
2022-08-02T02:21:31.629Z,5.90
2022-08-02T02:23:59.936Z,8.15
2022-08-02T02:26:31.495Z,7.50
2022-08-02T02:29:04.219Z,8.32
2022-08-02T02:31:37.816Z,7.18
2022-08-02T02:34:20.496Z,7.72
2022-08-02T02:36:51.674Z,8.57
2022-08-02T02:39:26.009Z,8.85
2022-08-02T02:41:57.036Z,7.57
2022-08-02T02:44:26.370Z,8.00
2022-08-02T02:46:55.568Z,8.68
2022-08-02T02:49:24.941Z,6.82
2022-08-02T02:51:53.158Z,7.65
2022-08-02T02:54:30.226Z,7.47
2022-08-02T02:57:05.444Z,7.75
2022-08-02T02:59:49.036Z,6.72
2022-08-02T03:02:18.913Z,7.22
2022-08-02T03:04:56.812Z,8.13
2022-08-02T03:07:26.892Z,6.63
2022-08-02T03:09:55.488Z,8.00
2022-08-02T03:12:28.764Z,9.77
2022-08-02T03:15:05.122Z,6.80
2022-08-02T03:17:41.115Z,9.93
2022-08-02T03:20:16.108Z,8.07
2022-08-02T03:22:45.466Z,7.95
2022-08-02T03:25:14.829Z,8.50
2022-08-02T03:27:43.097Z,7.72
2022-08-02T03:30:12.483Z,7.80
2022-08-02T03:32:42.992Z,6.93
2022-08-02T03:35:13.472Z,8.30
2022-08-02T03:37:42.058Z,7.38
2022-08-02T03:40:12.990Z,7.60
2022-08-02T03:42:41.831Z,7.57
2022-08-02T03:45:12.419Z,7.63
2022-08-02T03:47:42.320Z,7.45
2022-08-02T03:50:13.619Z,7.97
2022-08-02T03:52:44.142Z,11.00
2022-08-02T03:55:13.573Z,12.07
2022-08-02T03:57:48.499Z,11.40
2022-08-02T04:00:21.405Z,9.32
2022-08-02T04:02:49.897Z,9.95
2022-08-02T04:05:18.290Z,11.80
2022-08-02T04:08:32.570Z,11.07
2022-08-02T04:10:56.409Z,8.63
2022-08-02T04:13:31.660Z,12.15
2022-08-02T04:16:22.643Z,10.10
2022-08-02T04:19:01.088Z,8.80
2022-08-02T04:21:49.965Z,9.43
2022-08-02T04:24:32.320Z,12.60
2022-08-02T04:27:19.735Z,9.60
2022-08-02T04:29:51.750Z,8.02
2022-08-02T04:32:20.326Z,11.50
2022-08-02T04:38:08.104Z,10.43
2022-08-02T04:40:33.172Z,8.85
2022-08-02T04:43:01.775Z,8.75
2022-08-02T04:45:30.863Z,14.18
2022-08-02T04:48:06.598Z,8.30
2022-08-02T04:50:35.386Z,8.65
2022-08-02T04:53:06.638Z,9.23
2022-08-02T04:55:37.804Z,12.20
2022-08-02T04:58:23.798Z,11.02
2022-08-02T05:00:59.899Z,10.27
2022-08-02T05:03:28.250Z,8.95
2022-08-02T05:05:56.454Z,9.32
2022-08-02T05:08:27.499Z,9.98
2022-08-02T05:10:56.094Z,10.30
2022-08-02T05:13:26.875Z,8.68
2022-08-02T05:15:59.507Z,10.05
2022-08-02T05:18:28.720Z,9.02
2022-08-02T05:20:58.321Z,8.88
2022-08-02T05:23:26.942Z,7.63
2022-08-02T05:25:55.430Z,9.02
2022-08-02T05:28:25.626Z,6.13
2022-08-02T05:30:53.460Z,5.53
2022-08-02T05:33:29.142Z,10.15
2022-08-02T05:35:59.171Z,8.48
2022-08-02T05:38:28.575Z,6.78
2022-08-02T05:40:57.285Z,8.60
2022-08-02T05:43:25.191Z,7.03
2022-08-02T05:45:53.668Z,5.85
2022-08-02T05:48:26.398Z,9.05
2022-08-02T05:51:04.115Z,6.20
2022-08-02T05:53:37.072Z,6.38
2022-08-02T05:56:19.025Z,6.72
2022-08-02T05:59:00.998Z,8.52
2022-08-02T06:01:34.565Z,7.65
2022-08-02T06:04:05.980Z,7.10
2022-08-02T06:06:34.828Z,6.15
2022-08-02T06:09:09.414Z,4.65
2022-08-02T06:12:00.762Z,8.20
2022-08-02T06:14:34.893Z,7.70
2022-08-02T06:17:06.059Z,6.40
2022-08-02T06:19:51.368Z,6.90
2022-08-02T06:22:40.270Z,10.35
2022-08-02T06:25:50.351Z,9.07
2022-08-02T06:28:02.487Z,7.40
2022-08-02T06:30:33.377Z,6.78
2022-08-02T06:33:02.208Z,6.35
2022-08-02T06:35:45.003Z,7.38
2022-08-02T06:38:24.042Z,8.98
2022-08-02T06:41:09.127Z,7.10
2022-08-02T06:44:19.509Z,8.70
2022-08-02T06:47:10.939Z,8.60
2022-08-02T06:49:52.680Z,6.50
2022-08-02T06:52:31.321Z,6.32
2022-08-02T06:55:04.969Z,6.88
2022-08-02T06:57:33.896Z,9.38
2022-08-02T07:00:03.636Z,7.20
2022-08-02T07:02:31.885Z,8.45
2022-08-02T07:05:00.476Z,7.18
2022-08-02T07:07:28.579Z,5.70
2022-08-02T07:10:00.878Z,8.70
2022-08-02T07:12:31.114Z,8.07
2022-08-02T07:15:04.822Z,8.52
2022-08-02T07:17:33.378Z,7.30
2022-08-02T07:20:04.946Z,6.15
2022-08-02T07:22:33.293Z,6.57
2022-08-02T07:25:01.628Z,7.30
2022-08-02T07:27:30.102Z,7.75
2022-08-02T07:29:58.426Z,9.13
2022-08-02T07:32:28.909Z,5.60
2022-08-02T07:34:57.810Z,7.32
2022-08-02T07:37:52.850Z,11.38
2022-08-02T07:40:20.230Z,11.55
2022-08-02T07:42:51.900Z,7.05
2022-08-02T07:45:21.451Z,7.75
2022-08-02T07:47:49.786Z,7.05
2022-08-02T07:50:19.257Z,4.15
2022-08-02T07:52:47.787Z,5.63
2022-08-02T07:55:17.705Z,4.72
2022-08-02T07:57:48.810Z,4.95
2022-08-02T08:00:17.673Z,4.15
2022-08-02T08:02:46.194Z,5.85
2022-08-02T08:05:15.050Z,4.95
2022-08-02T08:07:43.134Z,3.97
2022-08-02T08:10:11.478Z,3.33
2022-08-02T08:12:39.605Z,4.22
2022-08-02T08:15:07.915Z,4.55
2022-08-02T08:17:36.612Z,4.15
2022-08-02T08:20:06.171Z,5.90
2022-08-02T08:22:34.164Z,4.72
2022-08-02T08:25:01.981Z,5.70
2022-08-02T08:27:31.934Z,5.78
2022-08-02T08:29:59.779Z,6.90
2022-08-02T08:32:27.619Z,4.53
2022-08-02T08:34:55.544Z,7.22
2022-08-02T08:37:23.452Z,4.50
2022-08-02T08:39:58.229Z,6.78
2022-08-02T08:42:29.218Z,3.40
2022-08-02T08:44:59.237Z,4.68
2022-08-02T08:47:36.002Z,5.13
2022-08-02T08:50:18.903Z,4.82
2022-08-02T08:55:17.648Z,4.45
2022-08-02T08:57:46.125Z,6.30
2022-08-02T09:00:16.082Z,3.95
2022-08-02T09:02:44.815Z,4.97
2022-08-02T09:05:14.964Z,5.25
2022-08-02T09:07:45.096Z,5.72
2022-08-02T09:10:40.624Z,5.15
2022-08-02T09:13:39.066Z,4.95
2022-08-02T09:16:11.210Z,6.15
2022-08-02T09:18:44.687Z,4.93
2022-08-02T09:21:15.535Z,3.40
2022-08-02T09:23:49.105Z,5.22
2022-08-02T09:26:20.844Z,4.38
2022-08-02T09:28:51.669Z,3.47
2022-08-02T09:31:22.239Z,4.25
2022-08-02T09:33:55.491Z,4.03
2022-08-02T09:36:24.615Z,5.30
2022-08-02T09:38:58.128Z,3.55
2022-08-02T09:41:29.358Z,6.03
2022-08-02T09:44:03.313Z,4.40
2022-08-02T09:46:45.146Z,4.45
2022-08-02T09:49:20.128Z,3.97
2022-08-02T09:51:52.164Z,3.90
2022-08-02T09:54:29.196Z,4.10
2022-08-02T09:57:01.531Z,5.03
2022-08-02T09:59:30.848Z,6.53
2022-08-02T10:02:17.808Z,7.05
2022-08-02T10:04:52.641Z,4.70
2022-08-02T10:07:23.195Z,5.60
2022-08-02T10:09:51.944Z,4.85
2022-08-02T10:12:23.602Z,5.93
2022-08-02T10:14:52.131Z,3.80
2022-08-02T10:17:21.006Z,4.90
2022-08-02T10:20:02.491Z,6.07
2022-08-02T10:22:36.373Z,4.72
2022-08-02T10:25:06.271Z,9.38
2022-08-02T10:28:02.894Z,4.20
2022-08-02T10:30:28.504Z,4.43
2022-08-02T10:32:59.501Z,5.05
2022-08-02T10:35:27.706Z,5.63
2022-08-02T10:38:01.402Z,4.65
2022-08-02T10:40:48.520Z,4.57
2022-08-02T10:43:38.205Z,5.45
2022-08-02T10:46:38.573Z,4.85
2022-08-02T10:52:03.045Z,4.35
2022-08-02T10:54:37.010Z,8.00
2022-08-02T10:59:44.207Z,4.55
2022-08-02T11:02:14.966Z,4.20
2022-08-02T11:04:43.075Z,6.20
2022-08-02T11:07:21.269Z,4.72
2022-08-02T11:09:50.527Z,3.38
2022-08-02T11:12:20.872Z,4.70
2022-08-02T11:15:07.625Z,5.00
2022-08-02T11:17:55.822Z,5.80
2022-08-02T11:20:25.629Z,4.43
2022-08-02T11:23:15.809Z,5.18
2022-08-02T11:26:03.270Z,5.05
2022-08-02T11:28:32.767Z,4.88
2022-08-02T11:31:02.914Z,5.53
2022-08-02T11:33:33.467Z,4.07
2022-08-02T11:36:07.235Z,5.05
2022-08-02T11:38:35.604Z,4.97
2022-08-02T11:41:09.678Z,7.05
2022-08-02T11:43:39.679Z,4.95
2022-08-02T11:46:20.670Z,4.40
2022-08-02T11:48:49.044Z,4.38
2022-08-02T11:51:18.670Z,3.45
2022-08-02T11:53:51.876Z,3.33
2022-08-02T11:56:27.913Z,4.60
2022-08-02T11:59:03.146Z,5.32
2022-08-02T12:01:42.023Z,3.97
2022-08-02T12:04:19.472Z,4.80
2022-08-02T12:06:59.526Z,6.75
2022-08-02T12:09:30.531Z,3.65
2022-08-02T12:12:02.891Z,3.15
2022-08-02T12:14:32.373Z,3.85
2022-08-02T12:17:19.910Z,3.88
2022-08-02T12:19:49.425Z,4.25
2022-08-02T12:22:27.524Z,5.45
2022-08-02T12:24:57.937Z,5.43
2022-08-02T12:27:41.495Z,3.97
2022-08-02T12:30:48.892Z,3.72
2022-08-02T12:33:17.239Z,3.47
2022-08-02T12:35:45.319Z,3.95
2022-08-02T12:38:13.739Z,5.18
2022-08-02T12:40:49.642Z,4.68
2022-08-02T12:43:20.695Z,7.97
2022-08-02T12:45:54.511Z,4.03
2022-08-02T12:51:51.006Z,4.90
2022-08-02T12:54:25.746Z,5.53
2022-08-02T12:57:14.768Z,2.78
2022-08-02T12:59:47.304Z,3.30
2022-08-02T13:02:17.271Z,3.35
2022-08-02T13:04:50.216Z,2.22
2022-08-02T13:07:19.833Z,4.18
2022-08-02T13:09:48.855Z,2.53
2022-08-02T13:12:17.575Z,4.10
2022-08-02T13:14:45.916Z,4.35
2022-08-02T13:17:14.052Z,1.83
2022-08-02T13:19:42.945Z,5.50
2022-08-02T13:22:11.064Z,2.78
2022-08-02T13:24:55.673Z,3.05
2022-08-02T13:27:26.205Z,4.18
2022-08-02T13:29:56.218Z,2.22
2022-08-02T13:32:25.922Z,4.50
2022-08-02T13:34:54.028Z,1.98
2022-08-02T13:37:22.184Z,2.78
2022-08-02T13:40:12.233Z,2.65
2022-08-02T13:42:38.895Z,3.15
2022-08-02T13:45:12.495Z,8.52
2022-08-02T13:48:03.684Z,3.08
2022-08-02T13:50:32.829Z,5.60
2022-08-02T13:53:03.444Z,2.45
2022-08-02T13:55:31.817Z,2.88
2022-08-02T13:58:00.194Z,1.98
2022-08-02T14:00:35.143Z,2.70
2022-08-02T14:03:06.063Z,2.65
2022-08-02T14:05:46.972Z,3.42
2022-08-02T14:08:23.402Z,2.40
2022-08-02T14:10:52.641Z,3.00
2022-08-02T14:13:20.899Z,3.38
2022-08-02T14:15:48.773Z,2.38
2022-08-02T14:18:17.207Z,3.70
2022-08-02T14:20:45.996Z,2.92
2022-08-02T14:23:14.243Z,2.80
2022-08-02T14:25:42.387Z,5.38
2022-08-02T14:28:10.358Z,2.13
2022-08-02T14:30:38.661Z,2.58
2022-08-02T14:33:06.735Z,2.88
2022-08-02T14:35:35.112Z,2.22
2022-08-02T14:38:03.160Z,3.85
2022-08-02T14:40:32.073Z,3.53
2022-08-02T14:43:01.050Z,4.53
2022-08-02T14:45:40.471Z,4.00
2022-08-02T14:48:11.287Z,5.97
2022-08-02T14:50:42.029Z,3.22
2022-08-02T14:53:12.564Z,3.53
2022-08-02T14:55:42.474Z,4.00
2022-08-02T14:58:11.550Z,1.67
2022-08-02T15:00:41.141Z,3.03
2022-08-02T15:03:16.297Z,2.40
2022-08-02T15:05:44.526Z,1.83
2022-08-02T15:08:12.313Z,2.88
2022-08-02T15:10:45.692Z,3.35
2022-08-02T15:13:13.586Z,3.78
2022-08-02T15:15:43.776Z,3.67
2022-08-02T15:18:12.914Z,2.78
2022-08-02T15:20:42.522Z,4.15
2022-08-02T15:23:18.270Z,3.65
2022-08-02T15:25:46.250Z,2.63
2022-08-02T15:28:14.138Z,6.32
2022-08-02T15:30:41.943Z,5.95
2022-08-02T15:33:10.005Z,4.88
2022-08-02T15:35:38.012Z,4.97
2022-08-02T15:38:06.249Z,2.72
2022-08-02T15:40:34.703Z,3.22
2022-08-02T15:43:02.730Z,3.35
2022-08-02T15:45:35.216Z,3.35
2022-08-02T15:48:06.941Z,3.22
2022-08-02T15:50:35.209Z,6.03
2022-08-02T15:53:05.519Z,3.15
2022-08-02T15:55:39.860Z,5.03
2022-08-02T15:58:22.609Z,7.35
2022-08-02T16:00:51.157Z,5.65
2022-08-02T16:03:19.578Z,4.32
2022-08-02T16:05:48.046Z,5.70
2022-08-02T16:08:16.477Z,3.90
2022-08-02T16:10:44.594Z,6.05
2022-08-02T16:13:31.331Z,4.47
2022-08-02T16:15:59.717Z,5.82
2022-08-02T16:18:28.089Z,4.55
2022-08-02T16:20:56.142Z,4.95
2022-08-02T16:23:58.646Z,3.78
2022-08-02T16:26:16.138Z,9.70
2022-08-02T16:28:44.407Z,5.03
2022-08-02T16:31:12.720Z,8.45
2022-08-02T16:33:40.968Z,5.50
2022-08-02T16:36:11.622Z,5.55
2022-08-02T16:38:40.091Z,4.68
2022-08-02T16:41:08.654Z,4.35
2022-08-02T16:43:37.649Z,3.15
2022-08-02T16:46:05.925Z,3.60
2022-08-02T16:48:38.000Z,8.48
2022-08-02T16:51:09.566Z,6.38
2022-08-02T16:54:00.276Z,5.78
2022-08-02T16:56:29.549Z,5.80
2022-08-02T16:58:59.432Z,4.22
2022-08-02T17:02:11.096Z,4.25
2022-08-02T17:04:17.726Z,5.05
2022-08-02T17:06:47.628Z,5.05
2022-08-02T17:12:16.198Z,3.55
2022-08-02T17:14:55.652Z,4.15
2022-08-02T17:17:33.782Z,4.00
2022-08-02T17:20:03.705Z,2.90
2022-08-02T17:22:31.884Z,5.05
2022-08-02T17:25:13.291Z,4.97
2022-08-02T17:27:43.901Z,4.97
2022-08-02T17:30:13.744Z,4.45
2022-08-02T17:32:45.788Z,4.70
2022-08-02T17:35:15.493Z,3.92
2022-08-02T17:37:54.760Z,6.53
2022-08-02T17:40:32.037Z,4.07
2022-08-02T17:43:00.590Z,5.47
2022-08-02T17:46:00.244Z,5.20
2022-08-02T17:48:17.371Z,5.13
2022-08-02T17:50:48.755Z,4.40
2022-08-02T17:53:19.007Z,5.55
2022-08-02T17:55:50.943Z,3.17
2022-08-02T17:58:22.523Z,2.60
2022-08-02T18:01:07.774Z,6.72
2022-08-02T18:03:51.970Z,6.10
2022-08-02T18:06:26.236Z,5.03
2022-08-02T18:08:58.554Z,8.27
2022-08-02T18:11:51.742Z,4.93
2022-08-02T18:14:17.887Z,6.88
2022-08-02T18:16:50.216Z,6.43
2022-08-02T18:19:19.820Z,6.03
2022-08-02T18:21:48.279Z,5.53
2022-08-02T18:24:16.434Z,5.28
2022-08-02T18:26:44.439Z,6.07
2022-08-02T18:29:15.279Z,4.72
2022-08-02T18:31:51.167Z,6.55
2022-08-02T18:34:23.916Z,8.77
2022-08-02T18:36:52.370Z,13.38
2022-08-02T18:39:23.214Z,10.00
2022-08-02T18:41:51.218Z,6.88
2022-08-02T18:44:19.358Z,4.85
2022-08-02T18:46:49.287Z,5.22
2022-08-02T18:49:17.770Z,6.00
2022-08-02T18:51:46.096Z,6.50
2022-08-02T18:54:14.988Z,8.52
2022-08-02T18:56:47.587Z,9.27
2022-08-02T18:59:19.208Z,3.75
2022-08-02T19:01:51.036Z,6.10
2022-08-02T19:04:27.157Z,5.88
2022-08-02T19:07:05.424Z,6.45
2022-08-02T19:09:39.862Z,8.18
2022-08-02T19:12:11.794Z,6.55
2022-08-02T19:14:41.108Z,9.07
2022-08-02T19:20:05.334Z,5.80
2022-08-02T19:22:35.723Z,5.68
2022-08-02T19:25:04.035Z,4.95
2022-08-02T19:27:40.844Z,6.15
2022-08-02T19:30:16.245Z,5.20
2022-08-02T19:32:58.978Z,6.47
2022-08-02T19:35:34.410Z,13.25
2022-08-02T19:38:12.538Z,5.57
2022-08-02T19:40:43.923Z,6.40
2022-08-02T19:46:02.076Z,3.85
2022-08-02T19:48:30.087Z,6.75
2022-08-02T19:51:00.688Z,6.65
2022-08-02T19:53:46.566Z,9.60
2022-08-02T19:56:21.252Z,4.65
2022-08-02T19:58:57.835Z,5.97
2022-08-02T20:01:37.266Z,8.00
2022-08-02T20:04:13.409Z,11.15
2022-08-02T20:06:47.519Z,5.47
2022-08-02T20:09:21.301Z,5.80
2022-08-02T20:11:54.913Z,4.13
2022-08-02T20:14:27.422Z,6.40
2022-08-02T20:16:57.347Z,5.82
2022-08-02T20:19:29.751Z,11.38
2022-08-02T20:22:00.648Z,7.25
2022-08-02T20:24:32.043Z,6.43
2022-08-02T20:27:01.322Z,5.13
2022-08-02T20:29:43.290Z,7.47
2022-08-02T20:32:22.586Z,6.22
2022-08-02T20:34:52.703Z,5.30
2022-08-02T20:38:00.674Z,8.57
2022-08-02T20:40:10.460Z,7.53
2022-08-02T20:42:47.868Z,4.63
2022-08-02T20:45:18.831Z,6.78
2022-08-02T20:47:50.775Z,7.03
2022-08-02T20:50:39.074Z,7.57
2022-08-02T20:53:08.532Z,8.27
2022-08-02T20:55:53.977Z,7.30
2022-08-02T20:58:26.948Z,5.47
2022-08-02T21:00:59.280Z,9.40
2022-08-02T21:03:32.234Z,12.18
2022-08-02T21:06:08.414Z,7.95
2022-08-02T21:08:38.312Z,5.97
2022-08-02T21:11:09.265Z,5.25
2022-08-02T21:13:47.081Z,10.48
2022-08-02T21:16:26.013Z,4.80
2022-08-02T21:18:59.715Z,6.18
2022-08-02T21:21:33.722Z,7.53
2022-08-02T21:24:01.902Z,10.13
2022-08-02T21:26:33.247Z,5.13
2022-08-02T21:31:51.077Z,5.20
2022-08-02T21:34:26.575Z,10.02
2022-08-02T21:36:56.002Z,7.97
2022-08-02T21:39:24.571Z,10.43
2022-08-02T21:41:53.062Z,10.25
2022-08-02T21:44:23.027Z,11.73
2022-08-02T21:46:53.828Z,7.75
2022-08-02T21:49:27.372Z,10.00
2022-08-02T21:52:13.594Z,10.68
2022-08-02T21:54:45.291Z,8.30
2022-08-02T21:57:16.340Z,6.72
2022-08-02T21:59:52.769Z,6.00
2022-08-02T22:02:30.644Z,7.88
2022-08-02T22:04:59.343Z,8.60
2022-08-02T22:07:38.244Z,6.15
2022-08-02T22:10:11.160Z,7.20
2022-08-02T22:12:39.241Z,5.55
2022-08-02T22:15:10.181Z,6.78
2022-08-02T22:17:52.142Z,8.43
2022-08-02T22:20:26.721Z,9.05
2022-08-02T22:23:00.078Z,5.88
2022-08-02T22:25:37.537Z,6.57
2022-08-02T22:28:36.561Z,7.18
2022-08-02T22:30:56.650Z,5.07
2022-08-02T22:33:47.428Z,5.35
2022-08-02T22:36:33.681Z,4.53
2022-08-02T22:39:04.271Z,9.07
2022-08-02T22:42:01.990Z,6.90
2022-08-02T22:44:35.523Z,5.85
2022-08-02T22:49:58.982Z,8.55
2022-08-02T22:52:28.750Z,6.95
2022-08-02T22:54:56.765Z,6.97
2022-08-02T22:57:30.437Z,6.88
2022-08-02T22:58:57.183Z,6.53
2022-08-02T22:59:05.291Z,5.35
2022-08-02T23:00:14.523Z,5.05
2022-08-02T23:02:42.524Z,6.70
2022-08-02T23:05:16.711Z,6.95
2022-08-02T23:07:44.883Z,7.63
2022-08-02T23:10:13.881Z,8.82
2022-08-02T23:12:41.946Z,10.02
2022-08-02T23:15:10.461Z,10.00
2022-08-02T23:17:57.137Z,5.40
2022-08-02T23:20:25.722Z,7.95
2022-08-02T23:22:55.787Z,5.90
2022-08-02T23:25:24.011Z,11.35
2022-08-02T23:27:52.383Z,5.32
2022-08-02T23:30:20.855Z,7.95
2022-08-02T23:32:48.784Z,8.43
2022-08-02T23:35:17.691Z,8.55
2022-08-02T23:38:00.488Z,7.93
2022-08-02T23:40:39.486Z,5.20
2022-08-02T23:43:14.288Z,6.68
2022-08-02T23:48:15.078Z,6.25
2022-08-02T23:50:43.017Z,7.53
2022-08-02T23:53:14.066Z,5.18
2022-08-02T23:55:42.022Z,6.90
2022-08-02T23:58:10.006Z,5.45
